createdAt,value
2019-05-13T00:02:24.016Z,8.20
2019-05-13T00:07:13.631Z,8.20
2019-05-13T00:12:04.990Z,7.90
2019-05-13T00:16:55.446Z,7.50
2019-05-13T00:21:47.081Z,7.00
2019-05-13T00:26:38.713Z,6.80
2019-05-13T00:31:30.358Z,6.90
2019-05-13T00:36:21.263Z,6.90
2019-05-13T00:41:14.199Z,8.10
2019-05-13T00:46:04.069Z,8.10
2019-05-13T00:50:54.770Z,7.70
2019-05-13T00:55:45.657Z,7.30
2019-05-13T01:00:37.281Z,6.80
2019-05-13T01:05:28.162Z,6.80
2019-05-13T01:10:19.049Z,6.60
2019-05-13T01:15:09.926Z,6.70
2019-05-13T01:20:00.804Z,7.80
2019-05-13T01:24:54.049Z,7.90
2019-05-13T01:29:43.521Z,7.60
2019-05-13T01:34:34.033Z,7.20
2019-05-13T01:39:24.515Z,6.90
2019-05-13T01:44:15.346Z,6.60
2019-05-13T01:49:06.225Z,6.40
2019-05-13T01:53:57.119Z,6.40
2019-05-13T01:58:48.017Z,7.50
2019-05-13T02:03:39.652Z,7.30
2019-05-13T02:08:33.470Z,6.90
2019-05-13T02:13:24.455Z,6.90
2019-05-13T02:18:13.882Z,6.30
2019-05-13T02:23:04.765Z,6.30
2019-05-13T02:27:55.661Z,6.10
2019-05-13T02:32:46.553Z,6.00
2019-05-13T02:37:38.187Z,7.40
2019-05-13T02:42:29.074Z,7.40
2019-05-13T02:47:22.592Z,7.10
2019-05-13T02:52:13.245Z,6.70
2019-05-13T02:57:03.702Z,6.30
2019-05-13T03:01:53.593Z,6.00
2019-05-13T03:06:44.365Z,5.60
2019-05-13T03:11:35.287Z,5.60
2019-05-13T03:16:28.149Z,5.70
2019-05-13T03:21:22.847Z,6.70
2019-05-13T03:26:13.035Z,6.30
2019-05-13T03:31:06.173Z,6.30
2019-05-13T03:35:55.651Z,5.70
2019-05-13T03:40:44.875Z,5.40
2019-05-13T03:45:36.508Z,5.20
2019-05-13T03:50:31.504Z,5.00
2019-05-13T03:55:22.608Z,5.00
2019-05-13T04:00:12.890Z,5.80
2019-05-13T04:05:04.175Z,6.40
2019-05-13T04:09:52.511Z,6.20
2019-05-13T04:14:42.739Z,5.80
2019-05-13T04:19:34.390Z,5.20
2019-05-13T04:24:26.011Z,5.00
2019-05-13T04:29:17.637Z,4.90
2019-05-13T04:34:08.526Z,4.90
2019-05-13T04:38:59.417Z,4.90
2019-05-13T04:43:53.667Z,5.90
2019-05-13T04:48:44.158Z,6.10
2019-05-13T04:53:33.519Z,6.10
2019-05-13T04:58:24.514Z,5.60
2019-05-13T05:03:22.747Z,5.60
2019-05-13T05:08:12.169Z,5.40
2019-05-13T05:13:12.994Z,5.30
2019-05-13T05:18:22.194Z,5.30
2019-05-13T05:28:41.474Z,6.70
2019-05-13T05:33:41.063Z,6.80
2019-05-13T05:38:32.174Z,6.30
2019-05-13T05:43:23.061Z,6.30
2019-05-13T05:48:14.542Z,6.20
2019-05-13T05:53:05.434Z,6.20
2019-05-13T05:57:56.331Z,6.20
2019-05-13T06:02:47.227Z,6.20
2019-05-13T06:07:38.865Z,7.80
2019-05-13T06:12:31.484Z,7.70
2019-05-13T06:17:22.044Z,7.70
2019-05-13T06:22:13.049Z,7.30
2019-05-13T06:27:04.670Z,7.30
2019-05-13T06:31:55.555Z,7.20
2019-05-13T06:36:46.437Z,7.20
2019-05-13T06:41:38.101Z,7.50
2019-05-13T06:46:28.990Z,7.50
2019-05-13T06:51:22.211Z,8.80
2019-05-13T06:56:12.227Z,8.80
2019-05-13T07:01:04.134Z,8.70
2019-05-13T07:05:54.250Z,8.50
2019-05-13T07:10:45.874Z,8.60
2019-05-13T07:15:36.886Z,8.60
2019-05-13T07:20:27.784Z,8.70
2019-05-13T07:25:18.822Z,8.90
2019-05-13T07:30:11.305Z,9.90
2019-05-13T07:35:03.970Z,10.40
2019-05-13T07:39:53.056Z,10.40
2019-05-13T07:44:42.487Z,10.40
2019-05-13T07:49:33.519Z,10.50
2019-05-13T07:54:24.285Z,10.60
2019-05-13T07:59:15.182Z,10.70
2019-05-13T08:04:06.070Z,11.00
2019-05-13T08:08:56.966Z,11.90
2019-05-13T08:13:47.881Z,12.20
2019-05-13T08:18:38.760Z,12.10
2019-05-13T08:23:32.140Z,12.00
2019-05-13T08:28:22.517Z,11.90
2019-05-13T08:33:12.530Z,12.00
2019-05-13T08:38:02.373Z,12.00
2019-05-13T08:42:53.264Z,12.50
2019-05-13T08:47:44.204Z,13.10
2019-05-13T08:52:35.050Z,13.00
2019-05-13T08:57:25.987Z,12.80
2019-05-13T09:02:16.958Z,12.70
2019-05-13T09:07:08.628Z,12.60
2019-05-13T09:12:02.079Z,12.60
2019-05-13T09:16:52.647Z,12.90
2019-05-13T09:21:42.343Z,13.60
2019-05-13T09:26:32.968Z,13.50
2019-05-13T09:31:23.845Z,13.50
2019-05-13T09:36:14.742Z,13.30
2019-05-13T09:41:05.626Z,13.20
2019-05-13T09:45:57.263Z,13.40
2019-05-13T09:50:51.499Z,14.10
2019-05-13T09:55:41.485Z,14.10
2019-05-13T10:00:32.298Z,14.20
2019-05-13T10:05:22.364Z,14.10
2019-05-13T10:10:12.590Z,13.90
2019-05-13T10:15:03.569Z,13.80
2019-05-13T10:19:54.438Z,13.70
2019-05-13T10:24:45.346Z,14.10
2019-05-13T10:29:36.233Z,14.90
2019-05-13T10:34:27.174Z,14.90
2019-05-13T10:39:18.801Z,14.50
2019-05-13T10:44:12.129Z,14.40
2019-05-13T10:49:02.062Z,14.40
2019-05-13T10:53:59.029Z,15.10
2019-05-13T10:58:43.938Z,15.10
2019-05-13T11:03:34.834Z,15.50
2019-05-13T11:08:26.462Z,15.30
2019-05-13T11:13:18.137Z,15.20
2019-05-13T11:18:14.219Z,15.10
2019-05-13T11:23:02.358Z,15.20
2019-05-13T11:27:55.554Z,15.60
2019-05-13T11:32:45.943Z,16.70
2019-05-13T11:37:37.054Z,16.90
2019-05-13T11:42:27.982Z,16.80
2019-05-13T11:47:22.734Z,16.80
2019-05-13T11:52:16.518Z,16.80
2019-05-13T11:57:12.425Z,16.90
2019-05-13T12:02:04.373Z,17.80
2019-05-13T12:06:54.844Z,18.60
2019-05-13T12:11:44.787Z,18.60
2019-05-13T12:16:36.458Z,19.00
2019-05-13T12:21:27.364Z,18.90
2019-05-13T12:26:18.270Z,19.20
2019-05-13T12:31:12.156Z,20.60
2019-05-13T12:36:02.033Z,20.60
2019-05-13T12:40:53.073Z,21.00
2019-05-13T12:45:43.500Z,21.00
2019-05-13T12:50:35.002Z,21.00
2019-05-13T12:55:26.658Z,21.40
2019-05-13T13:00:17.558Z,21.40
2019-05-13T13:05:13.350Z,21.20
2019-05-13T13:10:00.830Z,20.70
2019-05-13T13:14:54.538Z,20.30
2019-05-13T13:19:43.378Z,20.30
2019-05-13T13:24:35.018Z,20.40
2019-05-13T13:29:25.921Z,20.30
2019-05-13T13:34:18.550Z,20.30
2019-05-13T13:39:07.734Z,19.90
2019-05-13T13:44:04.664Z,19.50
2019-05-13T13:48:54.708Z,19.40
2019-05-13T13:53:44.564Z,19.30
2019-05-13T13:58:32.600Z,19.70
2019-05-13T14:03:22.294Z,19.50
2019-05-13T14:08:13.182Z,19.00
2019-05-13T14:13:05.020Z,18.80
2019-05-13T14:17:56.488Z,19.30
2019-05-13T14:22:47.376Z,19.30
2019-05-13T14:27:39.010Z,19.60
2019-05-13T14:32:32.110Z,19.20
2019-05-13T14:37:22.334Z,19.20
2019-05-13T14:42:12.494Z,18.80
2019-05-13T14:47:04.131Z,18.80
2019-05-13T14:51:56.416Z,19.30
2019-05-13T14:56:46.706Z,19.30
2019-05-13T15:01:37.613Z,19.30
2019-05-13T15:06:28.497Z,19.10
2019-05-13T15:11:21.988Z,18.90
2019-05-13T15:16:11.786Z,19.30
2019-05-13T15:21:02.712Z,19.20
2019-05-13T15:25:54.363Z,19.90
2019-05-13T15:30:45.273Z,19.90
2019-05-13T15:35:36.196Z,19.80
2019-05-13T15:40:27.086Z,19.60
2019-05-13T15:45:20.692Z,19.70
2019-05-13T15:50:12.365Z,20.10
2019-05-13T15:55:01.520Z,20.10
2019-05-13T15:59:52.917Z,19.40
2019-05-13T16:05:05.705Z,19.10
2019-05-13T16:09:35.517Z,19.10
2019-05-13T16:14:26.397Z,18.90
2019-05-13T16:19:17.297Z,19.20
2019-05-13T16:24:11.723Z,19.30
2019-05-13T16:29:02.103Z,19.30
2019-05-13T16:33:52.268Z,18.50
2019-05-13T16:38:42.409Z,18.40
2019-05-13T16:43:34.045Z,18.30
2019-05-13T16:48:25.677Z,18.60
2019-05-13T16:53:16.564Z,18.50
2019-05-13T16:58:07.453Z,18.20
2019-05-13T17:02:58.350Z,17.80
2019-05-13T17:07:51.532Z,17.00
2019-05-13T17:12:43.009Z,17.00
2019-05-13T17:17:32.542Z,17.60
2019-05-13T17:22:24.183Z,17.30
2019-05-13T17:27:15.198Z,17.30
2019-05-13T17:32:06.818Z,16.50
2019-05-13T17:36:58.465Z,16.10
2019-05-13T17:41:52.075Z,16.60
2019-05-13T17:46:41.814Z,16.60
2019-05-13T17:51:31.917Z,17.10
2019-05-13T17:56:22.805Z,16.80
2019-05-13T18:01:13.701Z,16.40
2019-05-13T18:06:04.625Z,16.00
2019-05-13T18:10:55.514Z,15.70
2019-05-13T18:15:47.150Z,16.60
2019-05-13T18:20:38.782Z,16.40
2019-05-13T18:25:31.672Z,15.80
2019-05-13T18:30:21.325Z,15.80
2019-05-13T18:35:12.953Z,15.00
2019-05-13T18:40:03.829Z,15.00
2019-05-13T18:44:54.731Z,14.80
2019-05-13T18:49:45.625Z,15.30
2019-05-13T18:54:37.259Z,15.00
2019-05-13T18:59:28.942Z,14.50
2019-05-13T19:04:21.716Z,14.50
2019-05-13T19:09:11.189Z,14.10
2019-05-13T19:14:01.639Z,13.70
2019-05-13T19:18:53.285Z,14.50
2019-05-13T19:23:44.909Z,14.20
2019-05-13T19:28:36.537Z,13.70
2019-05-13T19:33:27.422Z,13.60
2019-05-13T19:38:18.315Z,13.20
2019-05-13T19:43:11.381Z,12.80
2019-05-13T19:48:01.245Z,12.60
2019-05-13T19:52:51.846Z,13.20
2019-05-13T19:57:42.516Z,13.20
2019-05-13T20:02:32.883Z,12.70
2019-05-13T20:07:24.530Z,11.90
2019-05-13T20:12:15.923Z,11.90
2019-05-13T20:17:07.074Z,11.80
2019-05-13T20:21:58.713Z,12.40
2019-05-13T20:26:52.012Z,12.40
2019-05-13T20:31:41.410Z,11.70
2019-05-13T20:36:32.174Z,11.60
2019-05-13T20:41:23.813Z,10.80
2019-05-13T20:46:15.444Z,10.50
2019-05-13T20:51:06.361Z,10.50
2019-05-13T20:55:57.977Z,11.40
2019-05-13T21:00:48.873Z,11.30
2019-05-13T21:05:41.533Z,11.00
2019-05-13T21:10:31.499Z,10.60
2019-05-13T21:15:21.581Z,10.10
2019-05-13T21:20:19.495Z,9.70
2019-05-13T21:25:04.123Z,9.50
2019-05-13T21:29:55.755Z,10.20
2019-05-13T21:34:46.651Z,10.20
2019-05-13T21:39:37.565Z,10.10
2019-05-13T21:44:28.453Z,9.70
2019-05-13T21:49:21.360Z,9.20
2019-05-13T21:54:11.779Z,10.10
2019-05-13T21:59:01.945Z,10.10
2019-05-13T22:03:52.834Z,10.40
2019-05-13T22:08:43.727Z,10.00
2019-05-13T22:13:35.393Z,10.30
2019-05-13T22:18:26.290Z,10.30
2019-05-13T22:23:17.926Z,9.50
2019-05-13T22:28:11.660Z,9.80
2019-05-13T22:33:01.807Z,9.80
2019-05-13T22:37:51.444Z,10.10
2019-05-13T22:42:42.338Z,9.80
2019-05-13T22:47:33.234Z,9.30
2019-05-13T22:52:24.129Z,9.80
2019-05-13T22:57:15.032Z,10.10
2019-05-13T23:02:05.926Z,9.70
2019-05-13T23:06:56.813Z,9.20
2019-05-13T23:11:48.447Z,10.00
2019-05-13T23:16:42.003Z,10.00
2019-05-13T23:21:31.284Z,9.60
2019-05-13T23:26:21.661Z,9.10
2019-05-13T23:31:12.553Z,9.10
2019-05-13T23:36:03.439Z,9.70
2019-05-13T23:40:55.130Z,9.00
2019-05-13T23:45:46.025Z,8.90
2019-05-13T23:50:36.917Z,8.50
2019-05-13T23:55:28.549Z,9.30
